Aviation Digital Data Service (ADDS)

Output produced by METARs form (1239 UTC 22 March 2019)
found at http://www.aviationweather.gov/metar/data/
 
METAR text: FAPN 221200Z AUTO 11005KT //// // ////// 32/14 Q1018
Conditions at: FAPN (PILANESBERG , ZA) observed 1200 UTC 22 March 2019
Temperature: 32.0°C (90°F)
Dewpoint: 14.0°C (57°F) [RH = 34%]
Pressure (altimeter): 30.06 inches Hg (1018.0 mb)
Winds: from the ESE (110 degrees) at 6 MPH (5 knots; 2.6 m/s)
Visibility: missing
Ceiling: unknown
Clouds: missing
Weather: no significant weather observed at this time

METAR text: FAPN 221000Z AUTO 06006KT //// // ////// 30/15 Q1020
Conditions at: FAPN (PILANESBERG , ZA) observed 1000 UTC 22 March 2019
Temperature: 30.0°C (86°F)
Dewpoint: 15.0°C (59°F) [RH = 40%]
Pressure (altimeter): 30.12 inches Hg (1020.0 mb)
Winds: from the ENE (60 degrees) at 7 MPH (6 knots; 3.1 m/s)
Visibility: missing
Ceiling: unknown
Clouds: missing
Weather: no significant weather observed at this time

METAR text: FAPN 220800Z AUTO 05005KT //// // ////// 27/15 Q1021
Conditions at: FAPN (PILANESBERG , ZA) observed 0800 UTC 22 March 2019
Temperature: 27.0°C (81°F)
Dewpoint: 15.0°C (59°F) [RH = 48%]
Pressure (altimeter): 30.15 inches Hg (1021.0 mb)
Winds: from the NE (50 degrees) at 6 MPH (5 knots; 2.6 m/s)
Visibility: missing
Ceiling: unknown
Clouds: missing
Weather: no significant weather observed at this time

METAR text: FAPN 220700Z AUTO 09002KT //// // ////// 24/15 Q1021
Conditions at: FAPN (PILANESBERG , ZA) observed 0700 UTC 22 March 2019
Temperature: 24.0°C (75°F)
Dewpoint: 15.0°C (59°F) [RH = 57%]
Pressure (altimeter): 30.15 inches Hg (1021.0 mb)
Winds: from the E (90 degrees) at 2 MPH (2 knots; 1.0 m/s)
Visibility: missing
Ceiling: unknown
Clouds: missing
Weather: no significant weather observed at this time

METAR text: FAPN 220400Z AUTO 23003KT //// // ////// 17/13 Q1019
Conditions at: FAPN (PILANESBERG , ZA) observed 0400 UTC 22 March 2019
Temperature: 17.0°C (63°F)
Dewpoint: 13.0°C (55°F) [RH = 77%]
Pressure (altimeter): 30.09 inches Hg (1019.0 mb)
Winds: from the SW (230 degrees) at 3 MPH (3 knots; 1.5 m/s)
Visibility: missing
Ceiling: unknown
Clouds: missing
Weather: no significant weather observed at this time

METAR text: FAPN 212300Z AUTO 00000KT //// // ////// 18/06 Q1016
Conditions at: FAPN (PILANESBERG , ZA) observed 2300 UTC 21 March 2019
Temperature: 18.0°C (64°F)
Dewpoint: 6.0°C (43°F) [RH = 45%]
Pressure (altimeter): 30.00 inches Hg (1016.0 mb)
Winds: calm
Visibility: missing
Ceiling: unknown
Clouds: missing
Weather: no significant weather observed at this time

METAR text: FAPN 212200Z AUTO 07004KT //// // ////// 17/07 Q1016
Conditions at: FAPN (PILANESBERG , ZA) observed 2200 UTC 21 March 2019
Temperature: 17.0°C (63°F)
Dewpoint: 7.0°C (45°F) [RH = 52%]
Pressure (altimeter): 30.00 inches Hg (1016.0 mb)
Winds: from the ENE (70 degrees) at 5 MPH (4 knots; 2.1 m/s)
Visibility: missing
Ceiling: unknown
Clouds: missing
Weather: no significant weather observed at this time

METAR text: FAPN 212100Z AUTO 25002KT //// // ////// 19/07 Q1015
Conditions at: FAPN (PILANESBERG , ZA) observed 2100 UTC 21 March 2019
Temperature: 19.0°C (66°F)
Dewpoint: 7.0°C (45°F) [RH = 46%]
Pressure (altimeter): 29.97 inches Hg (1015.0 mb)
Winds: from the WSW (250 degrees) at 2 MPH (2 knots; 1.0 m/s)
Visibility: missing
Ceiling: unknown
Clouds: missing
Weather: no significant weather observed at this time

METAR text: FAPN 212000Z AUTO 27006KT //// // ////// 22/05 Q1015
Conditions at: FAPN (PILANESBERG , ZA) observed 2000 UTC 21 March 2019
Temperature: 22.0°C (72°F)
Dewpoint: 5.0°C (41°F) [RH = 33%]
Pressure (altimeter): 29.97 inches Hg (1015.0 mb)
Winds: from the W (270 degrees) at 7 MPH (6 knots; 3.1 m/s)
Visibility: missing
Ceiling: unknown
Clouds: missing
Weather: no significant weather observed at this time

METAR text: FAPN 211900Z AUTO 27006KT //// // ////// 24/07 Q1015
Conditions at: FAPN (PILANESBERG , ZA) observed 1900 UTC 21 March 2019
Temperature: 24.0°C (75°F)
Dewpoint: 7.0°C (45°F) [RH = 34%]
Pressure (altimeter): 29.97 inches Hg (1015.0 mb)
Winds: from the W (270 degrees) at 7 MPH (6 knots; 3.1 m/s)
Visibility: missing
Ceiling: unknown
Clouds: missing
Weather: no significant weather observed at this time

METAR text: FAPN 211600Z AUTO 32002KT //// // ////// 33/09 Q1012
Conditions at: FAPN (PILANESBERG , ZA) observed 1600 UTC 21 March 2019
Temperature: 33.0°C (91°F)
Dewpoint: 9.0°C (48°F) [RH = 23%]
Pressure (altimeter): 29.88 inches Hg (1012.0 mb)
Winds: from the NW (320 degrees) at 2 MPH (2 knots; 1.0 m/s)
Visibility: missing
Ceiling: unknown
Clouds: missing
Weather: no significant weather observed at this time

METAR text: FAPN 211500Z AUTO 28004KT //// // ////// 36/08 Q1013
Conditions at: FAPN (PILANESBERG , ZA) observed 1500 UTC 21 March 2019
Temperature: 36.0°C (97°F)
Dewpoint: 8.0°C (46°F) [RH = 18%]
Pressure (altimeter): 29.91 inches Hg (1013.0 mb)
Winds: from the W (280 degrees) at 5 MPH (4 knots; 2.1 m/s)
Visibility: missing
Ceiling: unknown
Clouds: missing
Weather: no significant weather observed at this time

METAR text: FAPN 210700Z AUTO 17004KT //// // ////// 26/07 Q1017
Conditions at: FAPN (PILANESBERG , ZA) observed 0700 UTC 21 March 2019
Temperature: 26.0°C (79°F)
Dewpoint: 7.0°C (45°F) [RH = 30%]
Pressure (altimeter): 30.03 inches Hg (1017.0 mb)
Winds: from the S (170 degrees) at 5 MPH (4 knots; 2.1 m/s)
Visibility: missing
Ceiling: unknown
Clouds: missing
Weather: no significant weather observed at this time

METAR text: FAPN 210600Z AUTO 00000KT //// // ////// 22/07 Q1017
Conditions at: FAPN (PILANESBERG , ZA) observed 0600 UTC 21 March 2019
Temperature: 22.0°C (72°F)
Dewpoint: 7.0°C (45°F) [RH = 38%]
Pressure (altimeter): 30.03 inches Hg (1017.0 mb)
Winds: calm
Visibility: missing
Ceiling: unknown
Clouds: missing
Weather: no significant weather observed at this time

METAR text: FAPN 210500Z 24003KT CAVOK 15/07 Q1016
Conditions at: FAPN (PILANESBERG , ZA) observed 0500 UTC 21 March 2019
Temperature: 15.0°C (59°F)
Dewpoint: 7.0°C (45°F) [RH = 59%]
Pressure (altimeter): 30.00 inches Hg (1016.0 mb)
Winds: from the WSW (240 degrees) at 3 MPH (3 knots; 1.5 m/s)
Visibility: 6 or more miles (10+ km)
Ceiling: ceiling and visibility are OK
Clouds: unknown
Weather: no significant weather observed at this time

METAR text: FAPN 210400Z AUTO 23003KT //// // ////// 15/07 Q1016
Conditions at: FAPN (PILANESBERG , ZA) observed 0400 UTC 21 March 2019
Temperature: 15.0°C (59°F)
Dewpoint: 7.0°C (45°F) [RH = 59%]
Pressure (altimeter): 30.00 inches Hg (1016.0 mb)
Winds: from the SW (230 degrees) at 3 MPH (3 knots; 1.5 m/s)
Visibility: missing
Ceiling: unknown
Clouds: missing
Weather: no significant weather observed at this time

METAR text: FAPN 210300Z AUTO 24004KT //// // ////// 16/07 Q1015
Conditions at: FAPN (PILANESBERG , ZA) observed 0300 UTC 21 March 2019
Temperature: 16.0°C (61°F)
Dewpoint: 7.0°C (45°F) [RH = 55%]
Pressure (altimeter): 29.97 inches Hg (1015.0 mb)
Winds: from the WSW (240 degrees) at 5 MPH (4 knots; 2.1 m/s)
Visibility: missing
Ceiling: unknown
Clouds: missing
Weather: no significant weather observed at this time